Portada
METAR-TAF:

METAR-TAF

Aeroports :

El Salvador, El Salvador

latitud: 13-26N, longitud: 089-03W, altitud: 25 m

Observació

L'informe es va fer fa 52 minuts, a les 23:50 UTC
Vent 3 kt del Sud-Oest
Temperatura 27°C
Humitat 74%
Pressió 1010 hPa
Visibilitat 10 km o més
sense núvols per sota de 1500 mi sense presència de cumulonimbus.

METAR: MSLP 222350Z 23003KT CAVOK 27/22 Q1010 A2983 NOSIG RMK FU E W

Hora: 18:42 (00:42 UTC)

Pronòstic

L'informe es va fer fa 3 hores i 17 minuts, a les 21:25 UTC
Pronòstic vàlid del 23 a les 00 UTC al 23 a les 24 UTC
Vent 3 kt amb direcció variable
Visibilitat 10 km o més
sense núvols per sota de 1500 mi sense presència de cumulonimbus.
A partir de les 23 a les 0400 UTC
Vent 8 kt del Nord/Nord-Est
A partir de les 23 a les 1800 UTC
Vent 8 kt del Sud/Sud-Oest
Visibilitat 10 km o més
Escasses núvols a una alçada de 6000 ft

TAF: MSLP 222125Z 2300/2324 VRB03KT CAVOK TX33/2318Z TN22/2312Z FM230400 03008KT FM231800 20008KT 9999 FEW060

Observacions i pronòstics meteorològics de més de 4000 aeroports (METAR i TAF).

Les estacions disponibles són els punts grocs i vermells al mapa.

Posi el ratolí al punt desitjat per veure el nom de l'estació.

Feu clic per veure les observacions i els pronòstics meteorològics.

Per canviar el mapa: feu clic els botons verds amb una creu de color negre per apropar; al botó verd amb un guió per allunyar la imatge; o en les fletxes verdes per a mapes adjacents.


METAR-TAF: